Time;durP1;ratioP1;P1;durP2;ratioP2;P2;SDS_P1;SDS_P2;PMS_P1;PMS_P2;Temp;Humidity;BMP_temperature;BMP_pressure;BME280_temperature;BME280_humidity;BME280_pressure;Samples;Min_cycle;Max_cycle;Signal;HPM_P1;HPM_P2
2023/10/10 00:01:07;;;;;;;54.23;49.93;;;13.40;95.80;;;;;;5114068;28;20173;-89
2023/10/10 00:03:36;;;;;;;55.57;50.90;;;13.30;95.70;;;;;;5112500;28;20257;-90
2023/10/10 00:06:08;;;;;;;57.67;53.10;;;13.20;95.70;;;;;;5112510;28;20198;-91
2023/10/10 00:08:35;;;;;;;54.60;50.30;;;13.20;95.70;;;;;;5112646;28;20162;-90
2023/10/10 00:11:09;;;;;;;55.43;50.83;;;13.20;95.70;;;;;;5112702;28;20242;-90
2023/10/10 00:14:22;;;;;;;53.57;49.17;;;13.10;95.60;;;;;;5112521;28;20552;-90
2023/10/10 00:16:35;;;;;;;52.67;48.73;;;13.00;95.60;;;;;;5112958;28;20630;-90
2023/10/10 00:21:51;;;;;;;50.63;46.83;;;12.90;95.50;;;;;;5114091;28;20165;-90
2023/10/10 00:24:24;;;;;;;50.77;46.33;;;12.80;95.50;;;;;;5112118;28;20201;-90
2023/10/10 00:26:49;;;;;;;46.97;43.13;;;12.80;95.50;;;;;;5113354;28;20173;-91
2023/10/10 00:29:18;;;;;;;47.03;42.87;;;12.80;95.50;;;;;;5112315;28;20188;-89
2023/10/10 00:31:47;;;;;;;47.87;44.03;;;12.80;95.50;;;;;;5112710;28;20185;-90
2023/10/10 00:34:13;;;;;;;48.13;44.10;;;12.80;95.40;;;;;;5112300;28;20201;-90
2023/10/10 00:36:40;;;;;;;46.37;42.70;;;12.80;95.50;;;;;;5112102;28;20202;-89
2023/10/10 00:41:51;;;;;;;46.57;42.47;;;12.70;95.40;;;;;;5113795;28;20245;-90
2023/10/10 00:44:17;;;;;;;48.57;44.37;;;12.80;95.50;;;;;;5115251;28;20250;-90
2023/10/10 00:46:51;;;;;;;45.63;41.93;;;12.70;95.40;;;;;;5116125;28;20185;-89
2023/10/10 00:49:21;;;;;;;47.47;43.47;;;12.80;95.40;;;;;;5116037;28;20239;-90
2023/10/10 00:51:47;;;;;;;49.10;45.00;;;12.80;95.50;;;;;;5116082;28;20170;-89
2023/10/10 00:56:54;;;;;;;45.07;41.20;;;12.80;95.40;;;;;;5117114;28;20202;-90
2023/10/10 00:59:27;;;;;;;48.20;43.90;;;12.80;95.40;;;;;;5115850;28;20178;-90
2023/10/10 01:01:53;;;;;;;50.67;46.43;;;12.80;95.40;;;;;;5117130;28;20157;-89
2023/10/10 01:04:28;;;;;;;51.10;45.77;;;12.80;95.40;;;;;;5117016;28;20235;-90
2023/10/10 01:06:54;;;;;;;50.57;46.00;;;12.80;95.40;;;;;;5115919;28;20257;-91
2023/10/10 01:09:32;;;;;;;51.83;47.13;;;12.80;95.40;;;;;;5116937;28;20230;-90
2023/10/10 01:11:58;;;;;;;52.23;47.60;;;12.80;95.40;;;;;;5115626;28;20178;-91
2023/10/10 01:14:26;;;;;;;54.33;49.23;;;12.80;95.40;;;;;;5115450;28;20201;-90
2023/10/10 01:16:55;;;;;;;55.53;49.83;;;12.80;95.40;;;;;;5116902;28;20661;-90
2023/10/10 01:19:21;;;;;;;55.03;49.63;;;12.80;95.40;;;;;;5115531;28;20204;-90
2023/10/10 01:21:50;;;;;;;55.03;49.53;;;12.80;95.40;;;;;;5115300;28;20174;-90
2023/10/10 01:24:18;;;;;;;57.23;51.73;;;12.80;95.40;;;;;;5115384;28;20198;-90
2023/10/10 01:26:45;;;;;;;57.00;51.70;;;12.70;95.40;;;;;;5116503;28;20170;-91
2023/10/10 01:29:21;;;;;;;55.83;50.47;;;12.60;95.40;;;;;;5115340;28;20182;-90
2023/10/10 01:31:48;;;;;;;57.10;51.67;;;12.60;95.50;;;;;;5115295;28;20618;-90
2023/10/10 01:34:30;;;;;;;56.60;51.10;;;12.60;95.40;;;;;;5115162;28;20267;-90
2023/10/10 01:37:00;;;;;;;74.77;68.37;;;12.50;95.40;;;;;;5116373;27;20193;-90
2023/10/10 01:39:53;;;;;;;76.27;69.70;;;12.60;95.50;;;;;;5115522;28;20213;-91
2023/10/10 01:42:24;;;;;;;75.43;68.90;;;12.60;95.40;;;;;;5115072;28;20524;-90
2023/10/10 01:44:51;;;;;;;74.03;67.67;;;12.60;95.40;;;;;;5114964;28;20225;-90
2023/10/10 01:47:26;;;;;;;77.27;70.17;;;12.60;95.50;;;;;;5114923;28;20173;-90
2023/10/10 01:49:52;;;;;;;75.40;68.70;;;12.60;95.50;;;;;;5114897;28;20226;-90
2023/10/10 01:52:20;;;;;;;77.60;70.37;;;12.60;95.40;;;;;;5114958;28;20256;-90
2023/10/10 01:54:52;;;;;;;78.83;71.53;;;12.60;95.50;;;;;;5114641;28;20202;-90
2023/10/10 01:57:21;;;;;;;77.90;70.33;;;12.70;95.50;;;;;;5115795;28;20675;-90
2023/10/10 01:59:48;;;;;;;76.80;69.40;;;12.70;95.50;;;;;;5115876;28;20174;-90
2023/10/10 02:02:16;;;;;;;58.17;51.87;;;12.70;95.50;;;;;;5115906;28;20166;-90
2023/10/10 02:04:42;;;;;;;56.70;50.77;;;12.70;95.60;;;;;;5116093;27;20581;-90
2023/10/10 02:07:21;;;;;;;63.43;54.47;;;12.80;95.60;;;;;;5115707;28;20172;-90
2023/10/10 02:09:53;;;;;;;79.00;71.20;;;12.70;95.60;;;;;;5114441;28;20162;-90
2023/10/10 02:12:22;;;;;;;78.43;71.03;;;12.80;95.60;;;;;;5114565;28;20197;-90
2023/10/10 02:14:48;;;;;;;59.13;52.73;;;12.70;95.60;;;;;;5114557;28;20190;-91
2023/10/10 02:17:22;;;;;;;60.70;53.97;;;12.70;95.60;;;;;;5115510;28;20239;-90
2023/10/10 02:19:59;;;;;;;59.53;52.50;;;12.70;95.60;;;;;;5115486;28;20153;-90
2023/10/10 02:23:09;;;;;;;61.47;53.97;;;12.70;95.60;;;;;;5114281;28;20158;-90
2023/10/10 02:27:56;;;;;;;62.70;54.07;;;12.70;95.70;;;;;;5115765;28;20154;-90
2023/10/10 02:30:35;;;;;;;62.07;53.83;;;12.70;95.70;;;;;;5114103;28;20194;-90
2023/10/10 02:33:15;;;;;;;58.30;52.13;;;12.60;95.70;;;;;;5115288;28;20600;-90
2023/10/10 02:38:34;;;;;;;61.93;55.17;;;12.60;95.60;;;;;;5115519;27;20237;-90
2023/10/10 02:41:25;;;;;;;57.93;51.83;;;12.50;95.60;;;;;;5113953;28;20161;-90
2023/10/10 02:43:56;;;;;;;59.03;52.33;;;12.60;95.60;;;;;;5113725;28;20157;-89
2023/10/10 02:46:34;;;;;;;59.37;53.37;;;12.60;95.70;;;;;;5113547;28;20158;-89
2023/10/10 02:49:05;;;;;;;61.63;55.17;;;12.50;95.60;;;;;;5113659;28;20625;-90
2023/10/10 02:51:31;;;;;;;62.13;55.93;;;12.50;95.60;;;;;;5113537;28;20166;-90
2023/10/10 02:53:57;;;;;;;64.93;57.83;;;12.50;95.60;;;;;;5113222;28;20256;-90
2023/10/10 02:56:24;;;;;;;66.73;59.47;;;12.50;95.60;;;;;;5113127;28;20297;-89
2023/10/10 02:58:54;;;;;;;66.07;57.57;;;12.50;95.70;;;;;;5113343;28;20174;-88
2023/10/10 03:04:08;;;;;;;60.53;53.87;;;12.60;95.70;;;;;;5114943;28;20632;-90
2023/10/10 03:06:34;;;;;;;59.40;53.27;;;12.60;95.70;;;;;;5112625;28;20293;-90
2023/10/10 03:12:03;;;;;;;60.30;54.17;;;12.70;95.70;;;;;;5114669;28;20599;-90
2023/10/10 03:14:33;;;;;;;59.87;54.00;;;12.70;95.70;;;;;;5113858;28;20602;-90
2023/10/10 03:16:59;;;;;;;60.23;54.50;;;12.60;95.70;;;;;;5112946;28;20685;-90
2023/10/10 03:19:28;;;;;;;61.63;55.70;;;12.70;95.70;;;;;;5112971;28;20261;-90
2023/10/10 03:30:50;;;;;;;66.40;59.77;;;12.70;95.60;;;;;;5111984;28;20703;-90
2023/10/10 03:36:05;;;;;;;62.83;56.40;;;12.70;95.70;;;;;;5113737;28;20232;-91
2023/10/10 05:25:21;;;;;;;74.80;68.07;;;12.80;95.50;;;;;;5116693;28;20200;-91
2023/10/10 05:27:47;;;;;;;73.83;66.67;;;12.80;95.50;;;;;;5116949;28;20503;-90
2023/10/10 05:30:25;;;;;;;73.63;66.93;;;12.80;95.50;;;;;;5114593;28;20226;-90
2023/10/10 05:33:03;;;;;;;71.77;65.00;;;12.90;95.60;;;;;;5116261;28;20177;-90
2023/10/10 05:35:32;;;;;;;73.20;66.63;;;12.80;95.60;;;;;;5114884;28;20228;-90
2023/10/10 05:38:00;;;;;;;73.50;66.43;;;12.90;95.60;;;;;;5116007;28;20217;-90
2023/10/10 05:40:26;;;;;;;73.23;66.53;;;13.00;95.60;;;;;;5116139;27;20158;-90
2023/10/10 05:42:52;;;;;;;71.87;65.37;;;13.00;95.60;;;;;;5116005;28;20645;-90
2023/10/10 05:45:18;;;;;;;72.57;65.60;;;12.90;95.60;;;;;;5115896;28;20193;-89
2023/10/10 05:47:44;;;;;;;75.22;68.03;;;12.90;95.60;;;;;;5116071;28;20597;-90
2023/10/10 05:50:10;;;;;;;78.13;70.50;;;13.00;95.60;;;;;;5115852;27;20173;-90
2023/10/10 05:52:38;;;;;;;79.10;71.70;;;13.00;95.60;;;;;;5114958;28;20171;-90
2023/10/10 05:55:05;;;;;;;76.85;69.88;;;13.00;95.60;;;;;;5114569;28;20269;-90
2023/10/10 05:57:33;;;;;;;78.40;71.13;;;13.00;95.60;;;;;;5115664;28;20711;-90
2023/10/10 05:59:59;;;;;;;78.57;71.07;;;13.10;95.60;;;;;;5114560;28;20277;-90
2023/10/10 06:02:27;;;;;;;80.43;72.83;;;13.00;95.60;;;;;;5115653;28;20190;-90
2023/10/10 06:04:53;;;;;;;101.38;92.50;;;13.00;95.60;;;;;;5115566;28;20195;-91
2023/10/10 06:07:20;;;;;;;100.93;92.17;;;13.10;95.60;;;;;;5114351;28;20204;-90
2023/10/10 06:09:48;;;;;;;104.18;95.50;;;13.10;95.60;;;;;;5114279;28;20177;-90
2023/10/10 06:12:15;;;;;;;100.30;91.88;;;13.20;95.60;;;;;;5115729;28;20170;-90
2023/10/10 06:14:42;;;;;;;101.45;92.38;;;13.20;95.70;;;;;;5114254;28;20748;-90
2023/10/10 06:17:08;;;;;;;106.72;97.50;;;13.20;95.60;;;;;;5115236;28;20185;-90
2023/10/10 06:19:34;;;;;;;105.10;95.37;;;13.20;95.70;;;;;;5115311;28;20166;-90
2023/10/10 06:22:02;;;;;;;101.43;93.20;;;13.20;95.60;;;;;;5114373;28;20170;-90
2023/10/10 06:24:28;;;;;;;104.27;95.57;;;13.20;95.60;;;;;;5115282;28;20264;-90
2023/10/10 06:27:00;;;;;;;103.00;93.72;;;13.30;95.60;;;;;;5115180;28;20578;-90
2023/10/10 06:29:34;;;;;;;102.80;94.20;;;13.20;95.60;;;;;;5115202;28;20646;-90
2023/10/10 06:32:00;;;;;;;81.50;73.97;;;13.20;95.70;;;;;;5115189;28;20154;-89
2023/10/10 06:34:34;;;;;;;77.32;70.75;;;13.30;95.70;;;;;;5113792;28;20691;-90
2023/10/10 06:37:07;;;;;;;103.22;94.93;;;13.30;95.70;;;;;;5115028;28;20717;-90
2023/10/10 06:39:53;;;;;;;104.10;95.72;;;13.30;95.70;;;;;;5113900;28;20158;-91
2023/10/10 06:42:27;;;;;;;79.43;71.88;;;13.40;95.70;;;;;;5113135;28;20253;-90
2023/10/10 06:44:53;;;;;;;80.65;72.72;;;13.50;95.70;;;;;;5113627;28;20322;-90
2023/10/10 06:47:19;;;;;;;76.10;68.78;;;13.50;95.80;;;;;;5113546;28;20533;-90
2023/10/10 06:49:47;;;;;;;75.95;68.10;;;13.50;95.80;;;;;;5113556;28;20170;-90
2023/10/10 06:52:19;;;;;;;75.78;68.55;;;13.50;95.80;;;;;;5113566;28;20178;-90
2023/10/10 06:54:54;;;;;;;74.80;67.45;;;13.60;95.90;;;;;;5113478;28;20325;-92
2023/10/10 06:57:36;;;;;;;67.15;60.90;;;13.60;95.90;;;;;;5113507;28;20211;-90
2023/10/10 07:00:28;;;;;;;66.13;59.70;;;13.70;96.00;;;;;;5113433;28;20174;-89
2023/10/10 07:02:57;;;;;;;52.00;47.67;;;13.80;96.10;;;;;;5113263;28;20161;-90
2023/10/10 07:05:26;;;;;;;47.43;43.13;;;13.80;96.20;;;;;;5114355;27;20197;-90
2023/10/10 07:07:58;;;;;;;46.78;42.78;;;14.00;96.30;;;;;;5113238;28;20204;-90
2023/10/10 07:10:33;;;;;;;45.50;41.77;;;14.00;96.30;;;;;;5114437;28;20171;-90
2023/10/10 07:12:59;;;;;;;45.25;41.40;;;14.00;96.40;;;;;;5113204;28;20182;-90
2023/10/10 07:15:26;;;;;;;43.50;39.67;;;14.00;96.40;;;;;;5114302;28;20190;-90
2023/10/10 07:18:04;;;;;;;43.88;40.13;;;14.10;96.50;;;;;;5112998;28;20208;-90
2023/10/10 07:23:20;;;;;;;44.87;40.80;;;14.20;96.50;;;;;;5114770;28;20168;-91
2023/10/10 07:25:58;;;;;;;42.37;38.50;;;14.20;96.60;;;;;;5114029;28;20205;-91
2023/10/10 07:28:26;;;;;;;42.57;38.57;;;14.20;96.60;;;;;;5113960;28;20193;-91
2023/10/10 07:30:55;;;;;;;44.40;39.90;;;14.20;96.60;;;;;;5112880;28;20177;-91
2023/10/10 07:33:29;;;;;;;44.83;40.77;;;14.30;96.60;;;;;;5112804;28;20245;-91
2023/10/10 07:35:55;;;;;;;44.95;40.50;;;14.30;96.70;;;;;;5112661;28;20185;-89
2023/10/10 07:38:27;;;;;;;44.78;40.38;;;14.30;96.70;;;;;;5113944;28;20162;-91
2023/10/10 07:40:53;;;;;;;45.83;41.07;;;14.30;96.70;;;;;;5114016;28;20157;-91
2023/10/10 07:43:20;;;;;;;44.47;40.10;;;14.30;96.70;;;;;;5112904;28;20551;-89
2023/10/10 07:45:47;;;;;;;45.47;40.90;;;14.40;96.80;;;;;;5112724;28;20197;-90
2023/10/10 07:50:48;;;;;;;48.05;42.50;;;14.50;96.80;;;;;;5114082;28;20166;-90
2023/10/10 07:53:14;;;;;;;47.65;42.63;;;14.50;96.80;;;;;;5113314;28;20173;-91
2023/10/10 07:56:22;;;;;;;48.85;43.83;;;14.50;96.80;;;;;;5112287;28;20197;-91
2023/10/10 07:58:49;;;;;;;48.90;43.58;;;14.50;96.80;;;;;;5113555;27;20200;-90
2023/10/10 08:01:18;;;;;;;50.58;44.28;;;14.50;96.80;;;;;;5112587;28;20166;-90
2023/10/10 08:03:46;;;;;;;51.92;46.35;;;14.60;96.80;;;;;;5112399;28;20205;-91
2023/10/10 08:06:17;;;;;;;52.15;45.88;;;14.60;96.80;;;;;;5112563;28;20219;-90
2023/10/10 08:08:44;;;;;;;52.50;47.05;;;14.70;96.90;;;;;;5112460;28;20182;-90
2023/10/10 08:11:13;;;;;;;50.92;45.17;;;14.70;96.90;;;;;;5112495;28;20174;-91
2023/10/10 08:13:42;;;;;;;51.70;46.13;;;14.80;96.90;;;;;;5112604;28;20253;-90
2023/10/10 08:16:07;;;;;;;53.97;48.40;;;14.80;96.80;;;;;;5112097;28;20194;-90
2023/10/10 08:21:12;;;;;;;54.67;49.13;;;14.80;96.80;;;;;;5113742;28;20150;-90
2023/10/10 08:23:49;;;;;;;57.50;51.33;;;14.90;96.80;;;;;;5112214;28;20178;-90
2023/10/10 08:26:24;;;;;;;54.33;48.70;;;14.90;96.80;;;;;;5112167;28;20170;-90
2023/10/10 08:28:50;;;;;;;69.63;63.42;;;14.90;96.70;;;;;;5112141;28;20177;-89
2023/10/10 08:31:16;;;;;;;72.68;65.95;;;14.90;96.70;;;;;;5113749;28;20166;-90
2023/10/10 08:33:46;;;;;;;73.65;66.10;;;14.90;96.70;;;;;;5112186;28;20196;-90
2023/10/10 08:36:24;;;;;;;70.43;64.43;;;14.90;96.70;;;;;;5112158;28;20217;-89
2023/10/10 08:38:54;;;;;;;72.43;65.40;;;14.90;96.60;;;;;;5113399;28;20518;-91
2023/10/10 08:41:31;;;;;;;72.47;66.47;;;14.90;96.60;;;;;;5113416;28;20181;-90
2023/10/10 08:44:01;;;;;;;70.60;64.30;;;14.90;96.60;;;;;;5113260;28;20186;-91
2023/10/10 08:46:31;;;;;;;72.00;65.78;;;14.90;96.50;;;;;;5112343;28;20232;-92
2023/10/10 08:49:04;;;;;;;63.03;57.47;;;15.00;96.50;;;;;;5112084;28;20188;-92
2023/10/10 08:51:34;;;;;;;55.42;50.05;;;15.00;96.50;;;;;;5112275;28;20162;-91
2023/10/10 08:54:17;;;;;;;52.72;48.17;;;15.10;96.50;;;;;;5112701;28;20178;-90
2023/10/10 08:56:59;;;;;;;63.85;58.20;;;15.20;96.40;;;;;;5112182;28;20249;-91
2023/10/10 08:59:29;;;;;;;64.10;59.20;;;15.30;96.40;;;;;;5114530;28;20162;-92
2023/10/10 09:02:16;;;;;;;51.25;46.95;;;15.40;96.30;;;;;;5114533;28;20208;-90
2023/10/10 09:04:43;;;;;;;49.88;45.83;;;15.30;96.20;;;;;;5115733;28;20683;-89
2023/10/10 09:07:11;;;;;;;66.05;60.60;;;15.30;96.10;;;;;;5115890;28;20201;-91
2023/10/10 09:09:39;;;;;;;61.33;56.50;;;15.30;95.90;;;;;;5115688;28;20178;-90
2023/10/10 09:12:13;;;;;;;63.45;58.08;;;15.40;95.90;;;;;;5116347;28;20170;-90
2023/10/10 09:14:41;;;;;;;52.40;48.08;;;15.30;95.80;;;;;;5115516;28;20283;-90
2023/10/10 09:17:28;;;;;;;50.53;46.08;;;15.40;95.80;;;;;;5115289;28;20293;-89
2023/10/10 09:19:54;;;;;;;51.55;47.25;;;15.50;95.80;;;;;;5116801;28;20162;-90
2023/10/10 09:22:42;;;;;;;49.92;45.75;;;15.50;95.60;;;;;;5116195;28;20172;-90
2023/10/10 09:25:20;;;;;;;48.75;44.67;;;15.60;95.60;;;;;;5115323;28;20214;-89
2023/10/10 09:27:59;;;;;;;47.95;44.15;;;15.70;95.50;;;;;;5115245;28;20521;-89
2023/10/10 09:30:31;;;;;;;47.47;43.60;;;15.60;95.40;;;;;;5115141;28;20181;-90
2023/10/10 09:33:23;;;;;;;48.90;44.95;;;15.60;95.20;;;;;;5116285;28;20629;-90
2023/10/10 09:35:54;;;;;;;48.85;44.85;;;15.70;95.20;;;;;;5114941;28;20685;-91
2023/10/10 09:38:22;;;;;;;50.75;46.83;;;15.80;95.20;;;;;;5115738;28;20244;-91
2023/10/10 09:40:58;;;;;;;47.70;43.83;;;16.00;95.20;;;;;;5114871;28;20288;-90
2023/10/10 09:43:35;;;;;;;45.38;41.70;;;16.30;95.10;;;;;;5116323;28;20290;-90
2023/10/10 09:46:19;;;;;;;45.17;41.67;;;16.50;94.90;;;;;;5116412;28;20723;-90
2023/10/10 09:49:16;;;;;;;43.80;40.15;;;16.30;94.40;;;;;;5116070;28;20641;-90
2023/10/10 09:54:25;;;;;;;45.80;42.00;;;16.30;94.20;;;;;;5116766;28;20197;-93
2023/10/10 09:56:53;;;;;;;42.83;39.47;;;16.30;94.10;;;;;;5114896;28;20217;-91
2023/10/10 09:59:20;;;;;;;43.22;39.55;;;16.40;94.10;;;;;;5115130;28;20170;-89
2023/10/10 10:01:47;;;;;;;39.08;36.40;;;16.50;94.00;;;;;;5114537;28;20594;-91
2023/10/10 10:04:22;;;;;;;40.55;37.60;;;16.50;93.90;;;;;;5115598;28;20277;-91
2023/10/10 10:07:14;;;;;;;42.65;39.15;;;16.50;93.50;;;;;;5114449;28;20629;-90
2023/10/10 10:09:45;;;;;;;40.50;37.63;;;16.60;93.30;;;;;;5114368;28;20170;-90
2023/10/10 10:12:52;;;;;;;39.25;36.15;;;16.40;93.10;;;;;;5115519;28;20174;-90
2023/10/10 10:15:53;;;;;;;39.22;36.15;;;16.60;93.10;;;;;;5115427;28;20216;-90
2023/10/10 10:18:27;;;;;;;36.10;33.28;;;16.80;92.70;;;;;;5091848;27;20259;-90
2023/10/10 10:21:18;;;;;;;37.45;34.03;;;16.70;92.30;;;;;;5114171;28;20170;-91
2023/10/10 10:23:46;;;;;;;31.08;28.50;;;16.80;92.00;;;;;;5115587;28;20181;-90
2023/10/10 10:26:22;;;;;;;31.33;29.23;;;16.90;92.20;;;;;;5114078;28;20174;-90
2023/10/10 10:28:56;;;;;;;31.98;29.33;;;17.00;91.20;;;;;;5115105;28;20169;-90
2023/10/10 10:31:29;;;;;;;30.52;28.38;;;17.10;91.20;;;;;;5114080;28;20197;-89
2023/10/10 10:34:06;;;;;;;32.38;29.58;;;17.20;90.20;;;;;;5113975;28;20189;-89
2023/10/10 10:36:42;;;;;;;31.83;29.33;;;17.10;89.80;;;;;;5113931;28;20201;-89
2023/10/10 10:39:21;;;;;;;30.88;28.70;;;17.20;90.30;;;;;;5114992;28;20538;-89
2023/10/10 10:41:56;;;;;;;32.15;29.67;;;17.30;89.40;;;;;;5115020;27;20160;-89
2023/10/10 10:44:47;;;;;;;29.48;27.48;;;17.20;90.00;;;;;;5115078;28;20192;-89
2023/10/10 10:48:07;;;;;;;31.25;28.83;;;17.40;89.90;;;;;;5114861;28;20154;-90
2023/10/10 10:50:28;;;;;;;30.20;27.85;;;17.30;89.00;;;;;;5114772;27;20185;-90
2023/10/10 10:52:59;;;;;;;26.85;25.08;;;17.50;87.90;;;;;;5113437;28;20170;-90
2023/10/10 10:55:28;;;;;;;28.15;25.95;;;17.70;88.60;;;;;;5114572;28;20575;-90
2023/10/10 11:01:07;;;;;;;28.45;26.27;;;17.80;88.00;;;;;;5115069;28;20273;-90
2023/10/10 11:03:37;;;;;;;27.83;25.58;;;17.90;88.30;;;;;;5114610;28;20537;-90
2023/10/10 11:06:07;;;;;;;28.40;26.40;;;17.90;87.70;;;;;;5114444;28;20189;-90
2023/10/10 11:11:36;;;;;;;27.27;25.08;;;17.80;87.40;;;;;;5114753;28;20598;-90
2023/10/10 11:14:10;;;;;;;29.15;26.95;;;17.80;87.40;;;;;;5114589;28;20601;-90
2023/10/10 11:16:45;;;;;;;30.38;27.42;;;18.10;87.10;;;;;;5113135;28;20637;-90
2023/10/10 11:21:49;;;;;;;29.63;27.42;;;18.00;86.90;;;;;;5114488;28;20166;-90
2023/10/10 11:24:23;;;;;;;30.48;28.05;;;17.90;87.30;;;;;;5114031;28;20182;-90
2023/10/10 11:26:48;;;;;;;29.17;27.23;;;18.10;87.40;;;;;;5113765;28;20161;-90
2023/10/10 11:29:27;;;;;;;29.15;27.00;;;18.00;86.90;;;;;;5112999;28;20178;-90
2023/10/10 11:32:06;;;;;;;28.38;25.90;;;18.00;86.80;;;;;;5114043;28;20150;-90
2023/10/10 11:34:44;;;;;;;29.77;26.95;;;18.30;86.80;;;;;;5113820;28;20558;-90
2023/10/10 11:37:32;;;;;;;26.65;24.58;;;18.30;86.30;;;;;;5112884;28;20215;-90
2023/10/10 11:40:20;;;;;;;25.98;23.90;;;18.30;85.10;;;;;;5114379;28;20154;-90
2023/10/10 11:42:47;;;;;;;24.52;22.63;;;18.20;85.70;;;;;;5112839;28;20543;-89
2023/10/10 11:45:19;;;;;;;26.02;23.92;;;18.30;86.10;;;;;;5112698;28;20237;-89
2023/10/10 11:47:48;;;;;;;24.00;22.30;;;18.40;84.90;;;;;;5114525;28;20295;-90
2023/10/10 11:50:22;;;;;;;24.45;22.42;;;18.60;85.70;;;;;;5115320;28;20177;-90
2023/10/10 11:52:58;;;;;;;25.17;23.23;;;18.60;85.20;;;;;;5113827;28;20504;-89
2023/10/10 11:55:24;;;;;;;25.70;23.83;;;18.60;85.40;;;;;;5112499;28;20197;-89
2023/10/10 11:57:51;;;;;;;24.80;22.92;;;18.70;84.80;;;;;;5112323;28;20212;-90
2023/10/10 12:00:28;;;;;;;25.05;23.15;;;18.40;84.80;;;;;;5113759;28;20571;-89
2023/10/10 12:02:57;;;;;;;27.05;24.55;;;18.30;85.20;;;;;;5112461;28;20170;-89
2023/10/10 12:07:58;;;;;;;23.55;21.95;;;18.60;85.40;;;;;;5114120;28;20158;-89
2023/10/10 12:10:39;;;;;;;24.58;22.77;;;18.70;85.20;;;;;;5112374;28;20603;-90
2023/10/10 12:13:09;;;;;;;26.38;24.40;;;18.90;85.00;;;;;;5113618;28;20222;-90
2023/10/10 12:15:40;;;;;;;23.52;21.83;;;19.10;84.40;;;;;;5112769;28;20258;-89
2023/10/10 12:18:11;;;;;;;23.05;21.35;;;18.90;83.80;;;;;;5113457;28;20674;-89
2023/10/10 12:20:44;;;;;;;23.85;22.15;;;18.90;84.10;;;;;;5113582;28;20679;-90
2023/10/10 12:23:10;;;;;;;23.60;21.88;;;19.10;84.90;;;;;;5113498;28;20249;-89
2023/10/10 12:25:41;;;;;;;24.27;22.20;;;18.90;84.10;;;;;;5112204;28;20238;-90
2023/10/10 12:28:12;;;;;;;25.25;23.27;;;18.90;84.80;;;;;;5112256;28;20166;-90
2023/10/10 12:30:42;;;;;;;23.73;21.98;;;18.90;84.70;;;;;;5112272;28;20167;-90
2023/10/10 12:33:08;;;;;;;24.15;22.38;;;19.00;85.20;;;;;;5112237;28;20271;-89
2023/10/10 12:35:35;;;;;;;24.50;22.52;;;19.00;84.80;;;;;;5112098;28;20194;-90
2023/10/10 12:38:01;;;;;;;24.67;22.77;;;18.80;83.40;;;;;;5112078;28;20202;-89
2023/10/10 12:40:33;;;;;;;23.55;21.73;;;18.90;84.40;;;;;;5115548;28;20222;-89
2023/10/10 12:43:01;;;;;;;23.55;21.75;;;19.00;84.00;;;;;;5116187;28;20162;-89
2023/10/10 12:45:33;;;;;;;24.02;22.10;;;18.90;84.20;;;;;;5115963;28;20194;-90
2023/10/10 12:48:02;;;;;;;23.02;21.23;;;18.80;84.70;;;;;;5115971;28;20648;-90
2023/10/10 12:50:29;;;;;;;23.90;22.10;;;18.80;85.00;;;;;;5117047;28;20189;-90
2023/10/10 12:53:15;;;;;;;24.15;22.27;;;18.80;85.30;;;;;;5115913;28;20178;-90
2023/10/10 12:55:51;;;;;;;24.95;23.05;;;18.70;85.20;;;;;;5116122;28;20190;-92
2023/10/10 12:58:24;;;;;;;24.35;22.55;;;18.70;85.20;;;;;;5115868;28;20381;-90
2023/10/10 13:00:53;;;;;;;26.48;24.13;;;18.70;85.60;;;;;;5115793;28;20220;-89
2023/10/10 13:03:23;;;;;;;25.20;23.10;;;18.70;85.30;;;;;;5115839;28;20177;-90
2023/10/10 13:05:52;;;;;;;23.23;21.52;;;18.70;85.60;;;;;;5115590;28;20217;-90
2023/10/10 13:08:20;;;;;;;24.13;22.05;;;18.70;85.90;;;;;;5116849;28;20177;-90
2023/10/10 13:10:46;;;;;;;24.60;22.58;;;18.70;86.40;;;;;;5115628;28;20600;-90
2023/10/10 13:13:26;;;;;;;24.80;22.90;;;18.60;87.00;;;;;;5116811;28;20170;-90
2023/10/10 13:16:07;;;;;;;24.80;22.77;;;18.50;86.80;;;;;;5115412;28;20213;-89
2023/10/10 13:18:33;;;;;;;24.75;22.58;;;18.40;86.70;;;;;;5115496;28;20173;-89
2023/10/10 13:21:00;;;;;;;24.23;22.23;;;18.30;87.00;;;;;;5115990;28;20546;-90
2023/10/10 13:23:25;;;;;;;25.38;23.08;;;18.30;87.60;;;;;;5115386;28;20182;-90
2023/10/10 13:25:51;;;;;;;25.70;23.65;;;18.30;87.60;;;;;;5116300;28;20190;-89
2023/10/10 13:28:17;;;;;;;26.15;23.95;;;18.20;88.40;;;;;;5115243;28;20174;-89
2023/10/10 13:30:46;;;;;;;26.40;24.27;;;18.00;88.90;;;;;;5116208;28;20182;-91
2023/10/10 13:33:13;;;;;;;25.08;23.10;;;18.00;89.00;;;;;;5119728;28;20170;-92
2023/10/10 13:35:38;;;;;;;26.10;23.98;;;18.00;89.10;;;;;;5119920;28;20217;-93
2023/10/10 13:38:06;;;;;;;26.52;23.90;;;17.90;89.20;;;;;;5116516;28;20201;-92
2023/10/10 13:40:37;;;;;;;26.15;24.10;;;18.00;89.20;;;;;;5115395;28;20634;-92
2023/10/10 13:43:08;;;;;;;27.92;25.42;;;18.00;89.60;;;;;;5115465;28;20750;-91
2023/10/10 13:45:41;;;;;;;28.35;25.85;;;17.90;89.50;;;;;;5114945;28;20267;-91
2023/10/10 13:48:14;;;;;;;25.80;23.33;;;18.00;89.70;;;;;;5115363;28;20185;-92
2023/10/10 13:50:42;;;;;;;29.05;25.85;;;18.00;89.90;;;;;;5115040;28;20181;-92
2023/10/10 13:53:12;;;;;;;28.10;25.75;;;18.00;89.90;;;;;;5115285;28;20187;-91
2023/10/10 13:55:41;;;;;;;28.92;26.35;;;18.00;89.80;;;;;;5114699;28;20205;-92
2023/10/10 13:58:10;;;;;;;28.30;25.60;;;18.00;89.80;;;;;;5115885;28;20292;-92
2023/10/10 14:00:37;;;;;;;28.80;26.30;;;18.00;90.10;;;;;;5115064;28;20170;-92
2023/10/10 14:03:04;;;;;;;27.40;24.92;;;18.00;90.10;;;;;;5115371;28;20174;-92
2023/10/10 14:05:33;;;;;;;28.67;26.17;;;18.00;90.20;;;;;;5116604;28;20190;-93
2023/10/10 14:08:00;;;;;;;29.17;26.52;;;18.00;90.40;;;;;;5116672;28;20211;-92
2023/10/10 14:10:25;;;;;;;29.90;26.98;;;18.00;90.30;;;;;;5116811;28;20166;-92
2023/10/10 14:12:51;;;;;;;40.15;36.45;;;18.00;90.30;;;;;;5115418;28;20546;-92
2023/10/10 14:15:20;;;;;;;40.75;36.75;;;17.90;90.20;;;;;;5115636;28;20209;-92
2023/10/10 14:17:49;;;;;;;43.40;39.38;;;17.90;90.10;;;;;;5118833;28;20277;-92
2023/10/10 14:20:21;;;;;;;31.85;28.92;;;17.90;90.40;;;;;;5118108;28;20162;-91
2023/10/10 14:22:49;;;;;;;32.25;29.20;;;17.80;90.40;;;;;;5120608;28;20205;-93
2023/10/10 14:25:18;;;;;;;32.70;29.40;;;17.80;90.50;;;;;;5120282;28;20257;-93
2023/10/10 14:27:44;;;;;;;42.50;38.88;;;17.80;90.50;;;;;;5122832;28;20181;-93
2023/10/10 14:30:21;;;;;;;42.13;38.53;;;17.80;91.00;;;;;;5121432;28;20633;-93
2023/10/10 14:32:54;;;;;;;35.00;30.35;;;17.80;91.20;;;;;;5121230;28;20180;-93
2023/10/10 14:35:23;;;;;;;36.75;31.25;;;17.80;91.30;;;;;;5120012;28;20246;-93
2023/10/10 14:37:54;;;;;;;46.60;42.00;;;17.80;91.20;;;;;;5119574;28;20205;-93
2023/10/10 14:40:22;;;;;;;47.08;42.45;;;17.80;91.30;;;;;;5119354;28;20158;-92
2023/10/10 14:42:52;;;;;;;49.13;44.22;;;17.80;91.30;;;;;;5119340;28;20170;-92
2023/10/10 14:45:19;;;;;;;38.03;33.58;;;17.70;91.30;;;;;;5122305;28;20198;-93
2023/10/10 14:47:45;;;;;;;38.15;34.35;;;17.70;91.30;;;;;;5126198;28;20181;-92
2023/10/10 14:50:12;;;;;;;48.40;42.90;;;17.70;91.20;;;;;;5121806;28;20182;-92
2023/10/10 14:52:47;;;;;;;51.47;46.53;;;17.60;91.20;;;;;;5126025;28;20187;-92
2023/10/10 14:55:23;;;;;;;40.10;35.83;;;17.60;91.20;;;;;;5125162;28;20219;-92
2023/10/10 14:57:54;;;;;;;47.95;36.80;;;17.60;91.20;;;;;;5127972;28;20205;-93
2023/10/10 15:00:29;;;;;;;42.63;37.72;;;17.60;91.30;;;;;;5119210;28;20614;-92
2023/10/10 15:02:55;;;;;;;46.83;38.42;;;17.60;91.50;;;;;;5115433;28;20187;-93
2023/10/10 15:05:23;;;;;;;42.80;38.45;;;17.60;91.40;;;;;;5117241;28;20190;-92
2023/10/10 15:07:52;;;;;;;47.03;37.92;;;17.60;91.40;;;;;;5119707;28;20182;-93
2023/10/10 15:10:25;;;;;;;43.47;38.90;;;17.50;91.60;;;;;;5116523;28;20174;-92
2023/10/10 15:12:52;;;;;;;45.13;40.38;;;17.50;91.60;;;;;;5118017;28;20150;-92
2023/10/10 15:15:17;;;;;;;47.03;42.00;;;17.50;91.50;;;;;;5118722;28;20193;-92
2023/10/10 15:17:43;;;;;;;46.58;40.80;;;17.60;91.50;;;;;;5118887;28;20251;-92
2023/10/10 15:20:12;;;;;;;54.25;41.92;;;17.60;91.50;;;;;;5118643;28;20170;-93
2023/10/10 15:22:41;;;;;;;50.70;41.97;;;17.50;91.40;;;;;;5119030;28;20178;-91
2023/10/10 15:25:09;;;;;;;58.15;42.28;;;17.60;91.40;;;;;;5117814;28;20190;-92
2023/10/10 15:27:34;;;;;;;51.97;41.95;;;17.60;91.40;;;;;;5116651;28;20170;-92